sensor_id;sensor_type;location;lat;lon;timestamp;temperature;humidity
49679;DHT22;35570;48.218;16.326;2023-07-09T00:01:11;23.60;67.40
49679;DHT22;35570;48.218;16.326;2023-07-09T00:03:38;23.60;68.40
49679;DHT22;35570;48.218;16.326;2023-07-09T00:06:04;23.60;68.20
49679;DHT22;35570;48.218;16.326;2023-07-09T00:08:31;23.60;67.10
49679;DHT22;35570;48.218;16.326;2023-07-09T00:10:57;23.60;67.20
49679;DHT22;35570;48.218;16.326;2023-07-09T00:13:24;23.60;68.10
49679;DHT22;35570;48.218;16.326;2023-07-09T00:15:51;23.60;67.00
49679;DHT22;35570;48.218;16.326;2023-07-09T00:18:17;23.60;67.00
49679;DHT22;35570;48.218;16.326;2023-07-09T00:20:43;23.50;68.20
49679;DHT22;35570;48.218;16.326;2023-07-09T00:23:11;23.50;67.20
49679;DHT22;35570;48.218;16.326;2023-07-09T00:25:43;23.50;68.10
49679;DHT22;35570;48.218;16.326;2023-07-09T00:28:19;23.50;68.50
49679;DHT22;35570;48.218;16.326;2023-07-09T00:30:46;23.50;68.40
49679;DHT22;35570;48.218;16.326;2023-07-09T00:33:12;23.40;68.00
49679;DHT22;35570;48.218;16.326;2023-07-09T00:35:46;23.40;69.00
49679;DHT22;35570;48.218;16.326;2023-07-09T00:38:21;23.40;67.50
49679;DHT22;35570;48.218;16.326;2023-07-09T00:40:58;23.40;67.60
49679;DHT22;35570;48.218;16.326;2023-07-09T00:43:29;23.30;68.10
49679;DHT22;35570;48.218;16.326;2023-07-09T00:49:02;23.30;68.40
49679;DHT22;35570;48.218;16.326;2023-07-09T00:51:36;23.30;68.30
49679;DHT22;35570;48.218;16.326;2023-07-09T00:54:13;23.20;69.30
49679;DHT22;35570;48.218;16.326;2023-07-09T00:56:45;23.20;68.40
49679;DHT22;35570;48.218;16.326;2023-07-09T00:59:15;23.20;69.40
49679;DHT22;35570;48.218;16.326;2023-07-09T01:01:43;23.10;68.40
49679;DHT22;35570;48.218;16.326;2023-07-09T01:04:12;23.20;68.70
49679;DHT22;35570;48.218;16.326;2023-07-09T01:06:47;23.10;67.80
49679;DHT22;35570;48.218;16.326;2023-07-09T01:09:15;23.10;69.00
49679;DHT22;35570;48.218;16.326;2023-07-09T01:11:41;23.10;69.70
49679;DHT22;35570;48.218;16.326;2023-07-09T01:14:09;23.10;68.70
49679;DHT22;35570;48.218;16.326;2023-07-09T01:16:44;23.10;69.30
49679;DHT22;35570;48.218;16.326;2023-07-09T01:19:12;23.10;69.80
49679;DHT22;35570;48.218;16.326;2023-07-09T01:21:39;23.10;68.80
49679;DHT22;35570;48.218;16.326;2023-07-09T01:24:45;23.10;69.70
49679;DHT22;35570;48.218;16.326;2023-07-09T01:27:02;23.10;70.20
49679;DHT22;35570;48.218;16.326;2023-07-09T01:29:34;23.00;68.70
49679;DHT22;35570;48.218;16.326;2023-07-09T01:31:59;23.00;70.10
49679;DHT22;35570;48.218;16.326;2023-07-09T01:34:25;23.00;68.50
49679;DHT22;35570;48.218;16.326;2023-07-09T01:36:51;22.90;69.10
49679;DHT22;35570;48.218;16.326;2023-07-09T01:39:17;22.90;69.70
49679;DHT22;35570;48.218;16.326;2023-07-09T01:41:44;22.80;68.80
49679;DHT22;35570;48.218;16.326;2023-07-09T01:44:11;22.80;69.70
49679;DHT22;35570;48.218;16.326;2023-07-09T01:46:38;22.80;69.20
49679;DHT22;35570;48.218;16.326;2023-07-09T01:49:03;22.80;69.50
49679;DHT22;35570;48.218;16.326;2023-07-09T01:51:33;22.80;71.40
49679;DHT22;35570;48.218;16.326;2023-07-09T01:53:58;22.80;70.00
49679;DHT22;35570;48.218;16.326;2023-07-09T01:56:25;22.80;71.50
49679;DHT22;35570;48.218;16.326;2023-07-09T01:58:51;22.70;71.20
49679;DHT22;35570;48.218;16.326;2023-07-09T02:01:17;22.80;71.10
49679;DHT22;35570;48.218;16.326;2023-07-09T02:03:45;22.70;70.80
49679;DHT22;35570;48.218;16.326;2023-07-09T02:06:11;22.70;71.50
49679;DHT22;35570;48.218;16.326;2023-07-09T02:08:38;22.70;72.40
49679;DHT22;35570;48.218;16.326;2023-07-09T02:11:04;22.70;70.50
49679;DHT22;35570;48.218;16.326;2023-07-09T02:13:30;22.70;71.60
49679;DHT22;35570;48.218;16.326;2023-07-09T02:15:56;22.70;72.10
49679;DHT22;35570;48.218;16.326;2023-07-09T02:18:21;22.60;71.80
49679;DHT22;35570;48.218;16.326;2023-07-09T02:20:47;22.60;72.50
49679;DHT22;35570;48.218;16.326;2023-07-09T02:23:13;22.60;70.80
49679;DHT22;35570;48.218;16.326;2023-07-09T02:25:38;22.60;72.50
49679;DHT22;35570;48.218;16.326;2023-07-09T02:28:04;22.60;70.80
49679;DHT22;35570;48.218;16.326;2023-07-09T02:30:30;22.50;71.20
49679;DHT22;35570;48.218;16.326;2023-07-09T02:32:55;22.50;71.60
49679;DHT22;35570;48.218;16.326;2023-07-09T02:35:22;22.50;72.90
49679;DHT22;35570;48.218;16.326;2023-07-09T02:37:48;22.50;72.60
49679;DHT22;35570;48.218;16.326;2023-07-09T02:40:15;22.50;71.80
49679;DHT22;35570;48.218;16.326;2023-07-09T02:42:41;22.50;72.60
49679;DHT22;35570;48.218;16.326;2023-07-09T02:45:09;22.50;74.30
49679;DHT22;35570;48.218;16.326;2023-07-09T02:47:34;22.50;72.60
49679;DHT22;35570;48.218;16.326;2023-07-09T02:50:00;22.50;73.70
49679;DHT22;35570;48.218;16.326;2023-07-09T02:52:26;22.50;73.40
49679;DHT22;35570;48.218;16.326;2023-07-09T02:54:52;22.50;73.40
49679;DHT22;35570;48.218;16.326;2023-07-09T02:57:18;22.40;73.60
49679;DHT22;35570;48.218;16.326;2023-07-09T02:59:43;22.40;73.60
49679;DHT22;35570;48.218;16.326;2023-07-09T03:02:09;22.40;74.30
49679;DHT22;35570;48.218;16.326;2023-07-09T03:04:35;22.40;73.90
49679;DHT22;35570;48.218;16.326;2023-07-09T03:07:01;22.40;73.30
49679;DHT22;35570;48.218;16.326;2023-07-09T03:09:27;22.40;73.80
49679;DHT22;35570;48.218;16.326;2023-07-09T03:11:53;22.40;73.30
49679;DHT22;35570;48.218;16.326;2023-07-09T03:14:18;22.30;74.40
49679;DHT22;35570;48.218;16.326;2023-07-09T03:16:44;22.30;74.50
49679;DHT22;35570;48.218;16.326;2023-07-09T03:19:10;22.30;75.20
49679;DHT22;35570;48.218;16.326;2023-07-09T03:21:36;22.30;75.20
49679;DHT22;35570;48.218;16.326;2023-07-09T03:24:01;22.30;75.10
49679;DHT22;35570;48.218;16.326;2023-07-09T03:26:27;22.30;74.70
49679;DHT22;35570;48.218;16.326;2023-07-09T03:28:53;22.30;74.80
49679;DHT22;35570;48.218;16.326;2023-07-09T03:31:20;22.30;74.90
49679;DHT22;35570;48.218;16.326;2023-07-09T03:33:47;22.30;75.50
49679;DHT22;35570;48.218;16.326;2023-07-09T03:36:13;22.20;75.60
49679;DHT22;35570;48.218;16.326;2023-07-09T03:38:39;22.20;74.40
49679;DHT22;35570;48.218;16.326;2023-07-09T03:41:05;22.20;74.50
49679;DHT22;35570;48.218;16.326;2023-07-09T03:43:31;22.10;76.10
49679;DHT22;35570;48.218;16.326;2023-07-09T03:45:57;22.20;75.60
49679;DHT22;35570;48.218;16.326;2023-07-09T03:48:22;22.10;74.10
49679;DHT22;35570;48.218;16.326;2023-07-09T03:50:48;22.20;76.00
49679;DHT22;35570;48.218;16.326;2023-07-09T03:53:15;22.30;75.70
49679;DHT22;35570;48.218;16.326;2023-07-09T03:55:41;22.20;76.50
49679;DHT22;35570;48.218;16.326;2023-07-09T03:58:09;22.20;76.20
49679;DHT22;35570;48.218;16.326;2023-07-09T04:00:35;22.30;75.90
49679;DHT22;35570;48.218;16.326;2023-07-09T04:03:01;22.30;75.80
49679;DHT22;35570;48.218;16.326;2023-07-09T04:05:27;22.30;76.10
49679;DHT22;35570;48.218;16.326;2023-07-09T04:07:54;22.40;74.60
49679;DHT22;35570;48.218;16.326;2023-07-09T04:10:19;22.40;76.20
49679;DHT22;35570;48.218;16.326;2023-07-09T04:12:45;22.40;75.90
49679;DHT22;35570;48.218;16.326;2023-07-09T04:15:12;22.40;75.90
49679;DHT22;35570;48.218;16.326;2023-07-09T04:17:41;22.40;75.80
49679;DHT22;35570;48.218;16.326;2023-07-09T04:20:08;22.40;75.40
49679;DHT22;35570;48.218;16.326;2023-07-09T04:22:35;22.40;76.10
49679;DHT22;35570;48.218;16.326;2023-07-09T04:25:01;22.40;76.30
49679;DHT22;35570;48.218;16.326;2023-07-09T04:27:29;22.40;75.70
49679;DHT22;35570;48.218;16.326;2023-07-09T04:29:55;22.40;76.50
49679;DHT22;35570;48.218;16.326;2023-07-09T04:32:21;22.50;74.70
49679;DHT22;35570;48.218;16.326;2023-07-09T04:34:47;22.40;75.20
49679;DHT22;35570;48.218;16.326;2023-07-09T04:37:13;22.50;76.10
49679;DHT22;35570;48.218;16.326;2023-07-09T04:39:40;22.50;75.80
49679;DHT22;35570;48.218;16.326;2023-07-09T04:42:07;22.50;76.20
49679;DHT22;35570;48.218;16.326;2023-07-09T04:44:34;22.50;76.20
49679;DHT22;35570;48.218;16.326;2023-07-09T04:47:00;22.60;76.00
49679;DHT22;35570;48.218;16.326;2023-07-09T04:49:25;22.60;75.40
49679;DHT22;35570;48.218;16.326;2023-07-09T04:51:51;22.60;75.60
49679;DHT22;35570;48.218;16.326;2023-07-09T04:54:17;22.70;77.00
49679;DHT22;35570;48.218;16.326;2023-07-09T04:56:42;22.80;76.20
49679;DHT22;35570;48.218;16.326;2023-07-09T04:59:10;22.80;74.60
49679;DHT22;35570;48.218;16.326;2023-07-09T05:01:36;22.80;75.50
49679;DHT22;35570;48.218;16.326;2023-07-09T05:04:02;22.80;74.90
49679;DHT22;35570;48.218;16.326;2023-07-09T05:06:27;22.90;75.80
49679;DHT22;35570;48.218;16.326;2023-07-09T05:08:53;22.90;73.70
49679;DHT22;35570;48.218;16.326;2023-07-09T05:11:19;23.00;74.70
49679;DHT22;35570;48.218;16.326;2023-07-09T05:13:44;23.00;73.70
49679;DHT22;35570;48.218;16.326;2023-07-09T05:16:10;23.10;75.80
49679;DHT22;35570;48.218;16.326;2023-07-09T05:18:36;23.10;73.30
49679;DHT22;35570;48.218;16.326;2023-07-09T05:21:02;23.20;74.20
49679;DHT22;35570;48.218;16.326;2023-07-09T05:23:28;23.20;74.40
49679;DHT22;35570;48.218;16.326;2023-07-09T05:26:01;23.30;73.30
49679;DHT22;35570;48.218;16.326;2023-07-09T05:28:28;23.30;73.60
49679;DHT22;35570;48.218;16.326;2023-07-09T05:30:55;23.30;72.60
49679;DHT22;35570;48.218;16.326;2023-07-09T05:33:21;23.40;74.70
49679;DHT22;35570;48.218;16.326;2023-07-09T05:35:47;23.40;74.60
49679;DHT22;35570;48.218;16.326;2023-07-09T05:38:13;23.50;73.50
49679;DHT22;35570;48.218;16.326;2023-07-09T05:40:39;23.60;73.00
49679;DHT22;35570;48.218;16.326;2023-07-09T05:43:05;23.60;72.90
49679;DHT22;35570;48.218;16.326;2023-07-09T05:45:31;23.60;74.30
49679;DHT22;35570;48.218;16.326;2023-07-09T05:48:00;23.70;73.40
49679;DHT22;35570;48.218;16.326;2023-07-09T05:50:27;23.80;71.90
49679;DHT22;35570;48.218;16.326;2023-07-09T05:52:53;23.80;71.40
49679;DHT22;35570;48.218;16.326;2023-07-09T05:55:19;23.90;73.10
49679;DHT22;35570;48.218;16.326;2023-07-09T05:57:44;24.00;72.90
49679;DHT22;35570;48.218;16.326;2023-07-09T06:00:11;24.00;72.00
49679;DHT22;35570;48.218;16.326;2023-07-09T06:02:38;24.10;71.70
49679;DHT22;35570;48.218;16.326;2023-07-09T06:05:04;24.10;72.70
49679;DHT22;35570;48.218;16.326;2023-07-09T06:07:30;24.20;72.50
49679;DHT22;35570;48.218;16.326;2023-07-09T06:09:56;24.30;73.50
49679;DHT22;35570;48.218;16.326;2023-07-09T06:12:22;24.30;73.10
49679;DHT22;35570;48.218;16.326;2023-07-09T06:14:48;24.30;74.00
49679;DHT22;35570;48.218;16.326;2023-07-09T06:17:14;24.40;73.80
49679;DHT22;35570;48.218;16.326;2023-07-09T06:19:40;24.50;71.90
49679;DHT22;35570;48.218;16.326;2023-07-09T06:22:05;24.50;72.40
49679;DHT22;35570;48.218;16.326;2023-07-09T06:24:31;24.60;71.20
49679;DHT22;35570;48.218;16.326;2023-07-09T06:26:57;24.60;72.90
49679;DHT22;35570;48.218;16.326;2023-07-09T06:29:24;24.70;72.90
49679;DHT22;35570;48.218;16.326;2023-07-09T06:31:50;24.70;71.40
49679;DHT22;35570;48.218;16.326;2023-07-09T06:34:15;24.80;70.80
49679;DHT22;35570;48.218;16.326;2023-07-09T06:36:41;24.80;71.70
49679;DHT22;35570;48.218;16.326;2023-07-09T06:39:06;24.80;72.30
49679;DHT22;35570;48.218;16.326;2023-07-09T06:41:32;24.80;71.10
49679;DHT22;35570;48.218;16.326;2023-07-09T06:44:07;24.90;70.50
49679;DHT22;35570;48.218;16.326;2023-07-09T06:46:33;24.90;71.60
49679;DHT22;35570;48.218;16.326;2023-07-09T06:48:59;25.00;73.50
49679;DHT22;35570;48.218;16.326;2023-07-09T06:51:25;25.00;72.80
49679;DHT22;35570;48.218;16.326;2023-07-09T06:53:51;25.00;72.20
49679;DHT22;35570;48.218;16.326;2023-07-09T06:56:17;25.10;72.30
49679;DHT22;35570;48.218;16.326;2023-07-09T06:58:43;25.10;69.60
49679;DHT22;35570;48.218;16.326;2023-07-09T07:01:11;25.10;69.80
49679;DHT22;35570;48.218;16.326;2023-07-09T07:03:37;25.20;70.90
49679;DHT22;35570;48.218;16.326;2023-07-09T07:06:03;25.20;70.90
49679;DHT22;35570;48.218;16.326;2023-07-09T07:08:32;25.20;71.20
49679;DHT22;35570;48.218;16.326;2023-07-09T07:10:59;25.30;69.50
49679;DHT22;35570;48.218;16.326;2023-07-09T07:13:29;25.30;70.30
49679;DHT22;35570;48.218;16.326;2023-07-09T07:15:55;25.40;70.00
49679;DHT22;35570;48.218;16.326;2023-07-09T07:18:21;25.40;70.40
49679;DHT22;35570;48.218;16.326;2023-07-09T07:20:46;25.40;71.00
49679;DHT22;35570;48.218;16.326;2023-07-09T07:23:12;25.50;70.90
49679;DHT22;35570;48.218;16.326;2023-07-09T07:25:38;25.60;70.00
49679;DHT22;35570;48.218;16.326;2023-07-09T07:28:03;25.70;69.30
49679;DHT22;35570;48.218;16.326;2023-07-09T07:30:29;25.70;67.80
49679;DHT22;35570;48.218;16.326;2023-07-09T07:32:55;25.70;70.50
49679;DHT22;35570;48.218;16.326;2023-07-09T07:35:21;25.80;69.00
49679;DHT22;35570;48.218;16.326;2023-07-09T07:37:47;25.80;68.90
49679;DHT22;35570;48.218;16.326;2023-07-09T07:40:12;25.90;68.70
49679;DHT22;35570;48.218;16.326;2023-07-09T07:42:38;26.00;72.20
49679;DHT22;35570;48.218;16.326;2023-07-09T07:45:04;26.10;69.20
49679;DHT22;35570;48.218;16.326;2023-07-09T07:47:30;26.20;71.80
49679;DHT22;35570;48.218;16.326;2023-07-09T07:49:56;26.30;71.80
49679;DHT22;35570;48.218;16.326;2023-07-09T07:52:23;26.40;68.70
49679;DHT22;35570;48.218;16.326;2023-07-09T07:54:49;26.50;69.20
49679;DHT22;35570;48.218;16.326;2023-07-09T07:57:14;26.60;70.10
49679;DHT22;35570;48.218;16.326;2023-07-09T07:59:40;26.70;68.50
49679;DHT22;35570;48.218;16.326;2023-07-09T08:02:14;26.80;66.40
49679;DHT22;35570;48.218;16.326;2023-07-09T08:04:40;27.00;69.70
49679;DHT22;35570;48.218;16.326;2023-07-09T08:07:08;27.00;69.50
49679;DHT22;35570;48.218;16.326;2023-07-09T08:09:34;27.10;68.40
49679;DHT22;35570;48.218;16.326;2023-07-09T08:12:00;27.20;67.60
49679;DHT22;35570;48.218;16.326;2023-07-09T08:14:26;27.20;68.40
49679;DHT22;35570;48.218;16.326;2023-07-09T08:16:52;27.30;68.10
49679;DHT22;35570;48.218;16.326;2023-07-09T08:19:20;27.30;67.60
49679;DHT22;35570;48.218;16.326;2023-07-09T08:24:38;27.50;68.30
49679;DHT22;35570;48.218;16.326;2023-07-09T08:27:07;27.60;66.90
49679;DHT22;35570;48.218;16.326;2023-07-09T08:29:33;27.70;69.30
49679;DHT22;35570;48.218;16.326;2023-07-09T08:31:58;27.80;68.70
49679;DHT22;35570;48.218;16.326;2023-07-09T08:34:24;27.90;67.90
49679;DHT22;35570;48.218;16.326;2023-07-09T08:36:50;28.00;69.00
49679;DHT22;35570;48.218;16.326;2023-07-09T08:39:15;28.20;66.80
49679;DHT22;35570;48.218;16.326;2023-07-09T08:41:47;28.30;68.10
49679;DHT22;35570;48.218;16.326;2023-07-09T08:47:24;28.60;66.30
49679;DHT22;35570;48.218;16.326;2023-07-09T08:50:02;28.70;64.90
49679;DHT22;35570;48.218;16.326;2023-07-09T08:52:34;28.80;65.90
49679;DHT22;35570;48.218;16.326;2023-07-09T08:55:08;29.00;66.80
49679;DHT22;35570;48.218;16.326;2023-07-09T08:57:42;29.10;67.10
49679;DHT22;35570;48.218;16.326;2023-07-09T09:00:26;29.20;65.80
49679;DHT22;35570;48.218;16.326;2023-07-09T09:03:17;29.30;64.10
49679;DHT22;35570;48.218;16.326;2023-07-09T09:05:49;29.50;64.60
49679;DHT22;35570;48.218;16.326;2023-07-09T09:11:06;29.60;62.90
49679;DHT22;35570;48.218;16.326;2023-07-09T09:13:36;29.60;62.40
49679;DHT22;35570;48.218;16.326;2023-07-09T09:16:10;29.70;64.40
49679;DHT22;35570;48.218;16.326;2023-07-09T09:18:43;29.80;63.40
49679;DHT22;35570;48.218;16.326;2023-07-09T09:21:15;30.00;63.20
49679;DHT22;35570;48.218;16.326;2023-07-09T09:23:48;30.10;62.90
49679;DHT22;35570;48.218;16.326;2023-07-09T09:26:26;30.30;60.20
49679;DHT22;35570;48.218;16.326;2023-07-09T09:28:54;30.40;60.30
49679;DHT22;35570;48.218;16.326;2023-07-09T09:31:19;30.50;59.10
49679;DHT22;35570;48.218;16.326;2023-07-09T09:33:47;30.50;56.90
49679;DHT22;35570;48.218;16.326;2023-07-09T09:36:21;30.50;57.30
49679;DHT22;35570;48.218;16.326;2023-07-09T09:38:47;30.50;56.60
49679;DHT22;35570;48.218;16.326;2023-07-09T09:41:23;30.50;57.20
49679;DHT22;35570;48.218;16.326;2023-07-09T09:43:52;30.60;57.40
49679;DHT22;35570;48.218;16.326;2023-07-09T09:46:20;30.70;58.10
49679;DHT22;35570;48.218;16.326;2023-07-09T09:48:48;30.70;55.80
49679;DHT22;35570;48.218;16.326;2023-07-09T09:51:16;30.60;58.40
49679;DHT22;35570;48.218;16.326;2023-07-09T09:53:47;30.60;58.40
49679;DHT22;35570;48.218;16.326;2023-07-09T09:56:18;30.60;59.90
49679;DHT22;35570;48.218;16.326;2023-07-09T09:58:45;30.60;55.90
49679;DHT22;35570;48.218;16.326;2023-07-09T10:01:18;30.60;56.90
49679;DHT22;35570;48.218;16.326;2023-07-09T10:03:46;30.70;58.60
49679;DHT22;35570;48.218;16.326;2023-07-09T10:06:16;30.80;54.00
49679;DHT22;35570;48.218;16.326;2023-07-09T10:08:52;30.80;56.60
49679;DHT22;35570;48.218;16.326;2023-07-09T10:13:50;31.20;57.20
49679;DHT22;35570;48.218;16.326;2023-07-09T10:16:25;31.30;55.70
49679;DHT22;35570;48.218;16.326;2023-07-09T10:19:24;31.40;57.80
49679;DHT22;35570;48.218;16.326;2023-07-09T10:22:05;31.50;55.80
49679;DHT22;35570;48.218;16.326;2023-07-09T10:25:06;31.70;56.20
49679;DHT22;35570;48.218;16.326;2023-07-09T10:27:51;31.80;55.60
49679;DHT22;35570;48.218;16.326;2023-07-09T10:30:37;32.10;56.70
49679;DHT22;35570;48.218;16.326;2023-07-09T10:33:12;32.20;57.70
49679;DHT22;35570;48.218;16.326;2023-07-09T10:35:59;32.40;55.80
49679;DHT22;35570;48.218;16.326;2023-07-09T10:38:56;32.50;52.90
49679;DHT22;35570;48.218;16.326;2023-07-09T10:41:26;32.70;52.80
49679;DHT22;35570;48.218;16.326;2023-07-09T10:44:10;32.80;54.60
49679;DHT22;35570;48.218;16.326;2023-07-09T10:46:39;32.80;54.00
49679;DHT22;35570;48.218;16.326;2023-07-09T10:49:11;32.80;52.20
49679;DHT22;35570;48.218;16.326;2023-07-09T10:51:39;32.80;52.70
49679;DHT22;35570;48.218;16.326;2023-07-09T10:57:00;32.30;50.30
49679;DHT22;35570;48.218;16.326;2023-07-09T10:59:31;31.90;55.30
49679;DHT22;35570;48.218;16.326;2023-07-09T11:04:53;31.50;55.30
49679;DHT22;35570;48.218;16.326;2023-07-09T11:07:27;31.40;53.70
49679;DHT22;35570;48.218;16.326;2023-07-09T11:09:57;31.60;56.80
49679;DHT22;35570;48.218;16.326;2023-07-09T11:12:38;31.90;53.80
49679;DHT22;35570;48.218;16.326;2023-07-09T11:15:19;32.40;55.20
49679;DHT22;35570;48.218;16.326;2023-07-09T11:17:48;32.90;49.40
49679;DHT22;35570;48.218;16.326;2023-07-09T11:20:25;33.30;50.00
49679;DHT22;35570;48.218;16.326;2023-07-09T11:23:02;33.70;48.00
49679;DHT22;35570;48.218;16.326;2023-07-09T11:25:45;33.90;46.80
49679;DHT22;35570;48.218;16.326;2023-07-09T11:28:11;34.00;46.50
49679;DHT22;35570;48.218;16.326;2023-07-09T11:30:53;34.00;48.40
49679;DHT22;35570;48.218;16.326;2023-07-09T11:33:27;34.00;45.00
49679;DHT22;35570;48.218;16.326;2023-07-09T11:36:14;34.10;44.20
49679;DHT22;35570;48.218;16.326;2023-07-09T11:38:45;34.10;46.40
49679;DHT22;35570;48.218;16.326;2023-07-09T11:50:01;34.20;43.30
49679;DHT22;35570;48.218;16.326;2023-07-09T11:52:37;33.80;41.70
49679;DHT22;35570;48.218;16.326;2023-07-09T11:55:40;33.70;42.30
49679;DHT22;35570;48.218;16.326;2023-07-09T11:58:17;33.80;43.30
49679;DHT22;35570;48.218;16.326;2023-07-09T12:00:49;34.00;46.60
49679;DHT22;35570;48.218;16.326;2023-07-09T12:05:59;34.60;45.10
49679;DHT22;35570;48.218;16.326;2023-07-09T12:08:45;34.70;38.50
49679;DHT22;35570;48.218;16.326;2023-07-09T12:11:43;34.80;40.40
49679;DHT22;35570;48.218;16.326;2023-07-09T12:14:12;34.80;43.60
49679;DHT22;35570;48.218;16.326;2023-07-09T12:16:40;34.80;44.30
49679;DHT22;35570;48.218;16.326;2023-07-09T12:19:06;34.90;43.30
49679;DHT22;35570;48.218;16.326;2023-07-09T12:21:36;34.90;41.40
49679;DHT22;35570;48.218;16.326;2023-07-09T12:24:11;34.80;41.50
49679;DHT22;35570;48.218;16.326;2023-07-09T12:26:40;34.70;38.90
49679;DHT22;35570;48.218;16.326;2023-07-09T12:29:15;34.60;42.60
49679;DHT22;35570;48.218;16.326;2023-07-09T12:31:41;34.70;42.70
49679;DHT22;35570;48.218;16.326;2023-07-09T12:34:14;34.80;40.40
49679;DHT22;35570;48.218;16.326;2023-07-09T12:36:48;34.80;40.20
49679;DHT22;35570;48.218;16.326;2023-07-09T12:39:23;34.80;42.90
49679;DHT22;35570;48.218;16.326;2023-07-09T12:41:49;34.80;40.80
49679;DHT22;35570;48.218;16.326;2023-07-09T12:44:20;34.90;39.70
49679;DHT22;35570;48.218;16.326;2023-07-09T12:46:47;34.90;39.90
49679;DHT22;35570;48.218;16.326;2023-07-09T12:51:49;35.00;42.00
49679;DHT22;35570;48.218;16.326;2023-07-09T12:54:19;35.00;41.90
49679;DHT22;35570;48.218;16.326;2023-07-09T12:56:47;35.10;44.40
49679;DHT22;35570;48.218;16.326;2023-07-09T12:59:27;35.10;39.30
49679;DHT22;35570;48.218;16.326;2023-07-09T13:02:18;35.10;40.80
49679;DHT22;35570;48.218;16.326;2023-07-09T13:04:45;35.00;40.90
49679;DHT22;35570;48.218;16.326;2023-07-09T13:09:51;35.00;38.90
49679;DHT22;35570;48.218;16.326;2023-07-09T13:12:17;35.00;38.30
49679;DHT22;35570;48.218;16.326;2023-07-09T13:14:42;35.20;41.00
49679;DHT22;35570;48.218;16.326;2023-07-09T13:17:16;35.30;39.40
49679;DHT22;35570;48.218;16.326;2023-07-09T13:19:42;35.50;42.40
49679;DHT22;35570;48.218;16.326;2023-07-09T13:22:08;35.60;42.30
49679;DHT22;35570;48.218;16.326;2023-07-09T13:24:37;36.00;42.40
49679;DHT22;35570;48.218;16.326;2023-07-09T13:27:04;36.30;40.00
49679;DHT22;35570;48.218;16.326;2023-07-09T13:29:31;36.70;39.20
49679;DHT22;35570;48.218;16.326;2023-07-09T13:31:58;37.10;39.00
49679;DHT22;35570;48.218;16.326;2023-07-09T13:34:25;37.50;39.40
49679;DHT22;35570;48.218;16.326;2023-07-09T13:36:53;37.70;35.30
49679;DHT22;35570;48.218;16.326;2023-07-09T13:39:20;37.90;36.80
49679;DHT22;35570;48.218;16.326;2023-07-09T13:41:47;38.10;34.90
49679;DHT22;35570;48.218;16.326;2023-07-09T13:44:20;37.90;34.60
49679;DHT22;35570;48.218;16.326;2023-07-09T13:46:46;37.80;34.40
49679;DHT22;35570;48.218;16.326;2023-07-09T13:49:16;37.70;35.20
49679;DHT22;35570;48.218;16.326;2023-07-09T13:51:44;37.60;33.30
49679;DHT22;35570;48.218;16.326;2023-07-09T13:54:23;37.30;34.30
49679;DHT22;35570;48.218;16.326;2023-07-09T13:56:50;37.00;37.60
49679;DHT22;35570;48.218;16.326;2023-07-09T13:59:18;36.60;36.40
49679;DHT22;35570;48.218;16.326;2023-07-09T14:01:44;36.40;35.40
49679;DHT22;35570;48.218;16.326;2023-07-09T14:04:13;36.10;36.70
49679;DHT22;35570;48.218;16.326;2023-07-09T14:06:40;35.90;38.20
49679;DHT22;35570;48.218;16.326;2023-07-09T14:09:09;35.50;37.20
49679;DHT22;35570;48.218;16.326;2023-07-09T14:11:38;35.20;37.00
49679;DHT22;35570;48.218;16.326;2023-07-09T14:14:23;34.90;39.20
49679;DHT22;35570;48.218;16.326;2023-07-09T14:16:51;34.70;38.70
49679;DHT22;35570;48.218;16.326;2023-07-09T14:19:20;34.50;39.90
49679;DHT22;35570;48.218;16.326;2023-07-09T14:21:47;34.30;38.00
49679;DHT22;35570;48.218;16.326;2023-07-09T14:24:24;34.10;38.80
49679;DHT22;35570;48.218;16.326;2023-07-09T14:26:52;34.00;40.50
49679;DHT22;35570;48.218;16.326;2023-07-09T14:29:18;34.00;43.00
49679;DHT22;35570;48.218;16.326;2023-07-09T14:31:45;34.00;41.30
49679;DHT22;35570;48.218;16.326;2023-07-09T14:36:43;34.00;41.40
49679;DHT22;35570;48.218;16.326;2023-07-09T14:39:11;33.90;38.30
49679;DHT22;35570;48.218;16.326;2023-07-09T14:41:37;33.80;41.40
49679;DHT22;35570;48.218;16.326;2023-07-09T14:44:27;33.80;41.80
49679;DHT22;35570;48.218;16.326;2023-07-09T14:46:57;33.80;40.70
49679;DHT22;35570;48.218;16.326;2023-07-09T14:49:23;33.80;43.80
49679;DHT22;35570;48.218;16.326;2023-07-09T14:51:50;33.70;41.00
49679;DHT22;35570;48.218;16.326;2023-07-09T14:54:20;33.60;40.10
49679;DHT22;35570;48.218;16.326;2023-07-09T14:56:47;33.50;40.60
49679;DHT22;35570;48.218;16.326;2023-07-09T14:59:13;33.50;40.60
49679;DHT22;35570;48.218;16.326;2023-07-09T15:01:38;33.40;41.70
49679;DHT22;35570;48.218;16.326;2023-07-09T15:04:30;33.40;40.80
49679;DHT22;35570;48.218;16.326;2023-07-09T15:06:56;33.40;39.30
49679;DHT22;35570;48.218;16.326;2023-07-09T15:09:25;33.20;40.20
49679;DHT22;35570;48.218;16.326;2023-07-09T15:11:55;33.10;40.10
49679;DHT22;35570;48.218;16.326;2023-07-09T15:14:23;32.90;40.50
49679;DHT22;35570;48.218;16.326;2023-07-09T15:16:49;32.80;42.50
49679;DHT22;35570;48.218;16.326;2023-07-09T15:19:20;32.80;43.10
49679;DHT22;35570;48.218;16.326;2023-07-09T15:21:49;32.90;42.30
49679;DHT22;35570;48.218;16.326;2023-07-09T15:24:33;32.90;42.80
49679;DHT22;35570;48.218;16.326;2023-07-09T15:27:00;33.00;43.70
49679;DHT22;35570;48.218;16.326;2023-07-09T15:29:27;33.00;41.20
49679;DHT22;35570;48.218;16.326;2023-07-09T15:31:53;33.00;42.40
49679;DHT22;35570;48.218;16.326;2023-07-09T15:34:18;32.90;42.90
49679;DHT22;35570;48.218;16.326;2023-07-09T15:36:50;32.90;41.40
49679;DHT22;35570;48.218;16.326;2023-07-09T15:39:17;32.90;41.30
49679;DHT22;35570;48.218;16.326;2023-07-09T15:41:43;32.80;42.00
49679;DHT22;35570;48.218;16.326;2023-07-09T15:44:15;32.70;42.50
49679;DHT22;35570;48.218;16.326;2023-07-09T15:46:52;32.70;42.80
49679;DHT22;35570;48.218;16.326;2023-07-09T15:49:19;32.60;44.10
49679;DHT22;35570;48.218;16.326;2023-07-09T15:51:45;32.70;43.80
49679;DHT22;35570;48.218;16.326;2023-07-09T15:54:15;32.70;44.20
49679;DHT22;35570;48.218;16.326;2023-07-09T15:56:41;32.70;44.50
49679;DHT22;35570;48.218;16.326;2023-07-09T15:59:20;32.70;44.20
49679;DHT22;35570;48.218;16.326;2023-07-09T16:01:48;32.70;43.60
49679;DHT22;35570;48.218;16.326;2023-07-09T16:04:14;32.80;43.30
49679;DHT22;35570;48.218;16.326;2023-07-09T16:06:40;32.70;43.60